createdAt,value
2022-07-27T00:00:51.458Z,67.19
2022-07-27T00:01:51.866Z,67.29
2022-07-27T00:02:52.054Z,67.39
2022-07-27T00:03:52.326Z,66.78
2022-07-27T00:04:52.543Z,67.19
2022-07-27T00:05:52.878Z,66.78
2022-07-27T00:06:53.203Z,67.09
2022-07-27T00:07:53.548Z,67.39
2022-07-27T00:08:53.898Z,67.60
2022-07-27T00:09:54.153Z,67.60
2022-07-27T00:10:54.439Z,67.19
2022-07-27T00:11:54.657Z,67.60
2022-07-27T00:12:55.028Z,67.29
2022-07-27T00:13:55.283Z,67.12
2022-07-27T00:14:55.498Z,67.02
2022-07-27T00:15:55.924Z,67.12
2022-07-27T00:16:56.131Z,67.43
2022-07-27T00:17:56.471Z,67.93
2022-07-27T00:18:56.820Z,67.63
2022-07-27T00:19:57.159Z,67.93
2022-07-27T00:20:57.501Z,67.93
2022-07-27T00:21:57.871Z,68.03
2022-07-27T00:22:58.101Z,67.52
2022-07-27T00:23:58.334Z,67.93
2022-07-27T00:24:58.632Z,67.63
2022-07-27T00:25:58.871Z,67.52
2022-07-27T00:26:59.113Z,67.72
2022-07-27T00:27:59.344Z,67.86
2022-07-27T00:28:59.601Z,67.86
2022-07-27T00:29:59.815Z,67.35
2022-07-27T00:31:00.289Z,66.95
2022-07-27T00:32:00.523Z,67.15
2022-07-27T00:33:00.744Z,67.25
2022-07-27T00:34:02.583Z,67.55
2022-07-27T00:35:01.379Z,67.05
2022-07-27T00:36:01.687Z,67.96
2022-07-27T00:37:01.977Z,67.05
2022-07-27T00:38:02.197Z,67.29
2022-07-27T00:39:02.577Z,67.29
2022-07-27T00:40:02.813Z,67.18
2022-07-27T00:41:04.988Z,68.19
2022-07-27T00:42:03.290Z,67.39
2022-07-27T00:43:03.627Z,67.69
2022-07-27T00:44:04.009Z,68.40
2022-07-27T00:45:04.258Z,67.69
2022-07-27T00:46:05.166Z,67.69
2022-07-27T00:47:04.836Z,67.99
2022-07-27T00:48:05.110Z,67.99
2022-07-27T00:49:05.446Z,68.40
2022-07-27T00:50:05.668Z,67.69
2022-07-27T00:51:05.873Z,67.79
2022-07-27T00:52:06.211Z,66.98
2022-07-27T00:53:06.459Z,67.49
2022-07-27T00:54:06.841Z,67.89
2022-07-27T00:55:07.103Z,67.08
2022-07-27T00:56:07.342Z,66.78
2022-07-27T00:57:07.622Z,67.08
2022-07-27T00:58:07.894Z,67.49
2022-07-27T00:59:08.239Z,66.67
2022-07-27T01:00:08.468Z,67.32
2022-07-27T01:01:08.724Z,67.01
2022-07-27T01:02:12.198Z,66.91
2022-07-27T01:03:09.939Z,67.11
2022-07-27T01:04:09.476Z,66.91
2022-07-27T01:05:09.729Z,66.20
2022-07-27T01:06:10.006Z,66.30
2022-07-27T01:07:10.266Z,66.61
2022-07-27T01:08:10.536Z,66.30
2022-07-27T01:09:11.109Z,66.81
2022-07-27T01:10:11.017Z,66.50
2022-07-27T01:11:11.317Z,68.13
2022-07-27T01:12:11.566Z,67.65
2022-07-27T01:13:12.823Z,67.05
2022-07-27T01:14:12.090Z,66.84
2022-07-27T01:15:12.339Z,66.74
2022-07-27T01:16:12.629Z,67.65
2022-07-27T01:17:12.869Z,67.05
2022-07-27T01:18:13.200Z,66.84
2022-07-27T01:19:13.755Z,67.05
2022-07-27T01:20:13.730Z,67.35
2022-07-27T01:21:13.965Z,66.94
2022-07-27T01:22:14.365Z,66.54
2022-07-27T01:23:14.629Z,67.55
2022-07-27T01:24:14.858Z,67.14
2022-07-27T01:25:15.192Z,66.94
2022-07-27T01:26:15.583Z,66.44
2022-07-27T01:27:15.806Z,67.55
2022-07-27T01:28:16.153Z,67.14
2022-07-27T01:29:16.433Z,66.97
2022-07-27T01:30:16.693Z,66.67
2022-07-27T01:31:16.974Z,66.47
2022-07-27T01:32:17.236Z,66.88
2022-07-27T01:33:17.505Z,68.60
2022-07-27T01:34:17.784Z,67.48
2022-07-27T01:35:18.009Z,66.97
2022-07-27T01:36:18.396Z,67.18
2022-07-27T01:37:18.629Z,67.68
2022-07-27T01:38:18.897Z,67.08
2022-07-27T01:39:19.131Z,68.70
2022-07-27T01:40:19.391Z,67.38
2022-07-27T01:41:19.629Z,67.28
2022-07-27T01:42:19.896Z,66.97
2022-07-27T01:43:20.150Z,67.18
2022-07-27T01:44:20.409Z,67.48
2022-07-27T01:45:20.627Z,67.18
2022-07-27T01:46:20.911Z,67.79
2022-07-27T01:47:21.231Z,67.68
2022-07-27T01:48:21.484Z,67.38
2022-07-27T01:49:21.910Z,67.38
2022-07-27T01:50:22.116Z,67.48
2022-07-27T01:51:22.383Z,67.48
2022-07-27T01:52:22.624Z,68.19
2022-07-27T01:53:22.910Z,67.68
2022-07-27T01:54:23.220Z,67.18
2022-07-27T01:55:23.458Z,67.48
2022-07-27T01:56:23.703Z,67.38
2022-07-27T01:57:23.952Z,68.83
2022-07-27T01:58:24.203Z,68.49
2022-07-27T01:59:24.483Z,67.82
2022-07-27T02:00:24.713Z,67.61
2022-07-27T02:01:25.090Z,67.41
2022-07-27T02:02:25.308Z,67.31
2022-07-27T02:03:25.715Z,67.41
2022-07-27T02:04:25.985Z,67.31
2022-07-27T02:05:26.267Z,67.41
2022-07-27T02:06:26.494Z,67.72
2022-07-27T02:07:26.737Z,67.51
2022-07-27T02:08:26.967Z,67.31
2022-07-27T02:09:27.299Z,67.21
2022-07-27T02:10:27.567Z,67.21
2022-07-27T02:11:27.835Z,67.41
2022-07-27T02:12:28.057Z,67.41
2022-07-27T02:13:28.444Z,67.51
2022-07-27T02:14:28.688Z,67.75
2022-07-27T02:15:28.992Z,67.85
2022-07-27T02:16:30.330Z,67.75
2022-07-27T02:17:29.538Z,67.85
2022-07-27T02:18:35.947Z,68.05
2022-07-27T02:19:31.145Z,68.05
2022-07-27T02:20:30.418Z,67.85
2022-07-27T02:21:30.776Z,67.75
2022-07-27T02:22:31.021Z,67.85
2022-07-27T02:23:31.278Z,68.46
2022-07-27T02:24:31.553Z,68.96
2022-07-27T02:25:31.804Z,69.00
2022-07-27T02:26:32.117Z,69.10
2022-07-27T02:27:32.342Z,69.51
2022-07-27T02:28:32.674Z,69.40
2022-07-27T02:29:32.923Z,68.79
2022-07-27T02:30:33.191Z,69.00
2022-07-27T02:31:33.412Z,68.90
2022-07-27T02:32:33.829Z,68.90
2022-07-27T02:33:34.114Z,69.00
2022-07-27T02:34:34.364Z,69.91
2022-07-27T02:35:34.631Z,69.60
2022-07-27T02:36:43.350Z,69.20
2022-07-27T02:37:35.102Z,69.10
2022-07-27T02:38:35.421Z,69.00
2022-07-27T02:39:35.762Z,68.90
2022-07-27T02:40:36.073Z,69.20
2022-07-27T02:41:36.404Z,69.60
2022-07-27T02:42:36.714Z,69.81
2022-07-27T02:43:37.048Z,69.71
2022-07-27T02:44:37.405Z,69.64
2022-07-27T02:45:37.722Z,69.54
2022-07-27T02:46:38.102Z,69.43
2022-07-27T02:47:38.325Z,69.95
2022-07-27T02:48:38.683Z,69.74
2022-07-27T02:49:38.942Z,69.64
2022-07-27T02:50:39.155Z,70.15
2022-07-27T02:51:39.642Z,70.15
2022-07-27T02:52:39.807Z,70.45
2022-07-27T02:53:40.147Z,70.04
2022-07-27T02:54:40.488Z,69.64
2022-07-27T02:55:40.830Z,69.84
2022-07-27T02:56:41.183Z,70.25
2022-07-27T02:57:41.508Z,70.25
2022-07-27T02:58:41.849Z,70.15
2022-07-27T02:59:42.209Z,69.95
2022-07-27T03:00:42.437Z,70.04
2022-07-27T03:01:42.929Z,69.74
2022-07-27T03:02:43.029Z,71.16
2022-07-27T03:03:43.280Z,70.96
2022-07-27T03:04:43.645Z,70.35
2022-07-27T03:05:43.889Z,70.15
2022-07-27T03:06:44.151Z,70.86
2022-07-27T03:07:44.513Z,70.45
2022-07-27T03:08:44.726Z,70.96
2022-07-27T03:09:49.289Z,71.26
2022-07-27T03:10:48.979Z,70.79
2022-07-27T03:11:45.469Z,70.76
2022-07-27T03:12:45.741Z,70.35
2022-07-27T03:13:46.013Z,70.55
2022-07-27T03:14:46.285Z,70.38
2022-07-27T03:15:47.562Z,71.67
2022-07-27T03:16:46.965Z,70.96
2022-07-27T03:17:47.455Z,70.35
2022-07-27T03:18:49.654Z,70.25
2022-07-27T03:19:47.725Z,70.55
2022-07-27T03:20:47.965Z,70.25
2022-07-27T03:21:48.193Z,70.15
2022-07-27T03:22:48.487Z,70.15
2022-07-27T03:23:48.715Z,70.15
2022-07-27T03:24:49.067Z,70.65
2022-07-27T03:25:49.369Z,71.16
2022-07-27T03:26:49.636Z,70.65
2022-07-27T03:27:49.898Z,70.04
2022-07-27T03:28:50.247Z,70.15
2022-07-27T03:29:50.517Z,70.15
2022-07-27T03:30:50.793Z,69.95
2022-07-27T03:31:51.049Z,70.35
2022-07-27T03:32:51.270Z,70.55
2022-07-27T03:33:51.622Z,70.35
2022-07-27T03:34:51.881Z,70.55
2022-07-27T03:35:52.111Z,70.86
2022-07-27T03:36:52.390Z,70.04
2022-07-27T03:37:52.617Z,70.04
2022-07-27T03:38:52.839Z,69.95
2022-07-27T03:39:53.230Z,69.95
2022-07-27T03:40:53.461Z,70.15
2022-07-27T03:41:53.683Z,70.15
2022-07-27T03:42:54.036Z,70.35
2022-07-27T03:43:54.322Z,71.47
2022-07-27T03:44:54.579Z,70.76
2022-07-27T03:45:54.883Z,69.74
2022-07-27T03:46:55.147Z,69.91
2022-07-27T03:47:55.609Z,69.71
2022-07-27T03:48:55.734Z,70.11
2022-07-27T03:49:55.978Z,69.81
2022-07-27T03:50:56.227Z,69.91
2022-07-27T03:51:56.497Z,70.11
2022-07-27T03:52:56.732Z,70.04
2022-07-27T03:53:57.100Z,70.15
2022-07-27T03:54:57.365Z,70.76
2022-07-27T03:55:57.607Z,70.35
2022-07-27T03:56:57.855Z,70.25
2022-07-27T03:57:58.090Z,70.55
2022-07-27T03:58:58.321Z,70.25
2022-07-27T03:59:58.567Z,70.45
2022-07-27T04:00:58.847Z,70.45
2022-07-27T04:02:00.167Z,71.47
2022-07-27T04:02:59.394Z,71.06
2022-07-27T04:03:59.649Z,70.42
2022-07-27T04:04:59.962Z,70.45
2022-07-27T04:06:00.239Z,70.35
2022-07-27T04:07:00.452Z,71.64
2022-07-27T04:08:00.702Z,70.92
2022-07-27T04:09:08.050Z,70.42
2022-07-27T04:10:02.376Z,70.21
2022-07-27T04:11:01.542Z,70.83
2022-07-27T04:12:01.791Z,71.03
2022-07-27T04:13:02.151Z,70.83
2022-07-27T04:14:02.421Z,71.33
2022-07-27T04:15:02.585Z,70.52
2022-07-27T04:16:02.833Z,70.21
2022-07-27T04:17:03.129Z,70.59
2022-07-27T04:18:03.408Z,70.08
2022-07-27T04:19:03.735Z,70.08
2022-07-27T04:20:03.954Z,70.18
2022-07-27T04:21:04.198Z,70.89
2022-07-27T04:22:04.484Z,70.39
2022-07-27T04:23:04.724Z,70.28
2022-07-27T04:24:05.037Z,71.00
2022-07-27T04:25:05.278Z,70.39
2022-07-27T04:26:05.616Z,69.88
2022-07-27T04:27:05.887Z,70.08
2022-07-27T04:28:06.127Z,69.57
2022-07-27T04:29:06.372Z,69.57
2022-07-27T04:30:09.446Z,69.78
2022-07-27T04:31:06.985Z,69.88
2022-07-27T04:32:07.250Z,69.17
2022-07-27T04:33:07.375Z,69.27
2022-07-27T04:34:07.629Z,70.59
2022-07-27T04:35:07.921Z,69.68
2022-07-27T04:36:08.171Z,70.48
2022-07-27T04:37:08.564Z,69.78
2022-07-27T04:38:08.670Z,69.68
2022-07-27T04:39:09.441Z,69.68
2022-07-27T04:40:09.261Z,69.78
2022-07-27T04:41:09.511Z,69.88
2022-07-27T04:42:09.788Z,70.59
2022-07-27T04:43:10.033Z,70.48
2022-07-27T04:44:10.314Z,69.74
2022-07-27T04:45:10.597Z,70.35
2022-07-27T04:46:15.131Z,69.24
2022-07-27T04:47:11.194Z,69.44
2022-07-27T04:48:11.433Z,69.64
2022-07-27T04:49:12.039Z,69.44
2022-07-27T04:50:12.064Z,69.51
2022-07-27T04:51:12.304Z,69.10
2022-07-27T04:52:12.545Z,69.00
2022-07-27T04:53:12.784Z,69.20
2022-07-27T04:54:13.056Z,69.51
2022-07-27T04:55:13.296Z,68.70
2022-07-27T04:56:13.536Z,67.85
2022-07-27T04:57:13.802Z,67.65
2022-07-27T04:58:14.052Z,68.06
2022-07-27T04:59:14.753Z,68.16
2022-07-27T05:00:14.548Z,67.76
2022-07-27T05:01:14.881Z,68.46
2022-07-27T05:02:15.028Z,67.96
2022-07-27T05:03:15.280Z,67.82
2022-07-27T05:04:15.607Z,67.42
2022-07-27T05:05:15.860Z,68.30
2022-07-27T05:06:16.110Z,67.46
2022-07-27T05:07:16.367Z,66.24
2022-07-27T05:08:16.609Z,65.70
2022-07-27T05:09:22.362Z,64.90
2022-07-27T05:10:20.297Z,64.59
2022-07-27T05:11:17.370Z,64.56
2022-07-27T05:12:17.652Z,64.67
2022-07-27T05:13:17.964Z,65.57
2022-07-27T05:14:21.092Z,64.36
2022-07-27T05:15:18.467Z,64.36
2022-07-27T05:16:18.750Z,63.96
2022-07-27T05:17:18.992Z,64.46
2022-07-27T05:18:19.234Z,64.36
2022-07-27T05:19:19.573Z,65.47
2022-07-27T05:20:19.854Z,64.16
2022-07-27T05:21:20.137Z,64.06
2022-07-27T05:22:20.376Z,64.67
2022-07-27T05:23:20.624Z,63.73
2022-07-27T05:24:20.896Z,63.59
2022-07-27T05:25:21.159Z,62.19
2022-07-27T05:26:21.442Z,60.12
2022-07-27T05:27:21.689Z,59.66
2022-07-27T05:28:21.951Z,57.79
2022-07-27T05:29:22.217Z,57.17
2022-07-27T05:30:22.480Z,56.10
2022-07-27T05:31:22.805Z,55.65
2022-07-27T05:32:23.040Z,54.72
2022-07-27T05:33:23.304Z,53.82
2022-07-27T05:34:23.583Z,54.32
2022-07-27T05:35:23.838Z,55.08
2022-07-27T05:36:24.101Z,55.30
2022-07-27T05:37:24.352Z,55.93
2022-07-27T05:38:24.613Z,56.36
2022-07-27T05:39:24.956Z,57.06
2022-07-27T05:40:25.241Z,56.99
2022-07-27T05:41:25.487Z,57.39
2022-07-27T05:42:25.733Z,57.74
2022-07-27T05:43:26.018Z,55.68
2022-07-27T05:44:26.295Z,54.43
2022-07-27T05:45:26.569Z,53.39
2022-07-27T05:46:31.072Z,54.12
2022-07-27T05:47:28.155Z,54.97
2022-07-27T05:48:27.447Z,55.51
2022-07-27T05:49:27.732Z,55.13
2022-07-27T05:50:28.015Z,55.43
2022-07-27T05:51:28.268Z,55.30
2022-07-27T05:52:28.528Z,55.18
2022-07-27T05:53:28.784Z,54.15
2022-07-27T05:54:29.051Z,54.25
2022-07-27T05:55:29.300Z,54.47
2022-07-27T05:56:29.550Z,55.00
2022-07-27T05:57:29.801Z,56.13
2022-07-27T05:58:30.065Z,55.60
2022-07-27T05:59:30.326Z,56.10
2022-07-27T06:00:30.607Z,55.40
2022-07-27T06:01:30.968Z,54.17
2022-07-27T06:02:31.143Z,54.15
2022-07-27T06:03:31.548Z,54.02
2022-07-27T06:04:31.814Z,53.50
2022-07-27T06:05:31.956Z,53.30
2022-07-27T06:06:32.264Z,53.42
2022-07-27T06:07:32.496Z,53.89
2022-07-27T06:08:32.826Z,53.22
2022-07-27T06:09:33.107Z,53.50
2022-07-27T06:10:33.379Z,53.47
2022-07-27T06:11:33.649Z,53.05
2022-07-27T06:12:33.918Z,52.67
2022-07-27T06:13:34.200Z,52.57
2022-07-27T06:14:34.528Z,52.47
2022-07-27T06:15:34.871Z,53.47
2022-07-27T06:16:35.216Z,52.74
2022-07-27T06:17:35.502Z,52.32
2022-07-27T06:18:35.776Z,52.02
2022-07-27T06:19:36.731Z,52.39
2022-07-27T06:20:36.364Z,50.65
2022-07-27T06:21:36.504Z,50.67
2022-07-27T06:22:36.786Z,51.09
2022-07-27T06:23:37.048Z,51.87
2022-07-27T06:24:37.336Z,51.57
2022-07-27T06:25:37.606Z,51.79
2022-07-27T06:26:37.889Z,52.72
2022-07-27T06:27:38.153Z,52.84
2022-07-27T06:28:38.454Z,54.12
2022-07-27T06:29:38.743Z,52.29
2022-07-27T06:30:39.003Z,53.19
2022-07-27T06:31:39.366Z,52.82
2022-07-27T06:32:39.568Z,54.35
2022-07-27T06:33:39.863Z,54.07
2022-07-27T06:34:42.548Z,54.17
2022-07-27T06:35:40.381Z,54.07
2022-07-27T06:36:41.210Z,54.77
2022-07-27T06:37:41.124Z,54.17
2022-07-27T06:38:41.240Z,54.47
2022-07-27T06:39:41.554Z,54.97
2022-07-27T06:40:41.823Z,53.97
2022-07-27T06:41:42.154Z,53.27
2022-07-27T06:42:42.321Z,53.69
2022-07-27T06:43:42.585Z,54.93
2022-07-27T06:44:42.885Z,54.93
2022-07-27T06:45:43.386Z,55.35
2022-07-27T06:46:43.413Z,56.26
2022-07-27T06:47:49.098Z,55.68
2022-07-27T06:48:45.780Z,56.28
2022-07-27T06:49:44.540Z,56.38
2022-07-27T06:50:44.489Z,56.78
2022-07-27T06:51:45.289Z,56.68
2022-07-27T06:52:45.099Z,56.38
2022-07-27T06:53:46.120Z,55.98
2022-07-27T06:54:46.331Z,55.98
2022-07-27T06:55:45.959Z,56.81
2022-07-27T06:56:46.963Z,56.30
2022-07-27T06:57:46.705Z,56.81
2022-07-27T06:58:46.723Z,56.28
2022-07-27T06:59:47.752Z,55.47
2022-07-27T07:00:48.132Z,55.91
2022-07-27T07:01:48.898Z,56.10
2022-07-27T07:02:47.819Z,57.01
2022-07-27T07:03:48.095Z,57.14
2022-07-27T07:04:48.355Z,57.61
2022-07-27T07:05:48.604Z,56.30
2022-07-27T07:06:48.847Z,56.71
2022-07-27T07:07:49.100Z,57.11
2022-07-27T07:08:49.341Z,56.61
2022-07-27T07:09:49.598Z,56.78
2022-07-27T07:10:49.837Z,55.47
2022-07-27T07:11:50.086Z,56.38
2022-07-27T07:12:50.337Z,56.78
2022-07-27T07:13:50.577Z,55.98
2022-07-27T07:14:50.830Z,56.28
2022-07-27T07:15:51.137Z,55.88
2022-07-27T07:16:51.380Z,55.98
2022-07-27T07:17:51.620Z,56.28
2022-07-27T07:18:52.685Z,56.91
2022-07-27T07:19:52.190Z,56.71
2022-07-27T07:20:52.423Z,56.41
2022-07-27T07:21:52.672Z,56.58
2022-07-27T07:22:53.141Z,55.71
2022-07-27T07:23:53.352Z,55.30
2022-07-27T07:24:53.619Z,55.40
2022-07-27T07:25:53.873Z,55.00
2022-07-27T07:26:54.116Z,56.01
2022-07-27T07:27:54.354Z,56.54
2022-07-27T07:28:54.591Z,56.74
2022-07-27T07:29:54.841Z,56.43
2022-07-27T07:30:55.082Z,56.23
2022-07-27T07:31:55.355Z,55.73
2022-07-27T07:32:55.596Z,56.93
2022-07-27T07:33:55.830Z,56.74
2022-07-27T07:34:56.078Z,56.63
2022-07-27T07:36:14.192Z,56.84
2022-07-27T07:36:57.632Z,57.04
2022-07-27T07:37:56.921Z,56.84
2022-07-27T07:38:57.158Z,55.63
2022-07-27T07:39:57.412Z,56.54
2022-07-27T07:40:57.691Z,56.74
2022-07-27T07:41:57.916Z,56.13
2022-07-27T07:42:58.154Z,56.34
2022-07-27T07:43:58.391Z,56.84
2022-07-27T07:44:58.641Z,57.04
2022-07-27T07:45:58.885Z,55.43
2022-07-27T07:46:59.247Z,55.53
2022-07-27T07:47:59.415Z,55.73
2022-07-27T07:48:59.727Z,55.03
2022-07-27T07:49:59.977Z,54.93
2022-07-27T07:51:00.205Z,55.73
2022-07-27T07:52:00.451Z,55.93
2022-07-27T07:53:00.686Z,56.10
2022-07-27T07:54:00.940Z,56.21
2022-07-27T07:55:01.180Z,55.58
2022-07-27T07:56:01.420Z,55.88
2022-07-27T07:57:01.654Z,55.15
2022-07-27T07:58:01.927Z,54.25
2022-07-27T07:59:02.209Z,54.85
2022-07-27T08:00:02.460Z,54.85
2022-07-27T08:01:02.700Z,54.02
2022-07-27T08:02:02.996Z,54.02
2022-07-27T08:03:03.282Z,53.72
2022-07-27T08:04:03.471Z,54.32
2022-07-27T08:05:03.711Z,53.72
2022-07-27T08:06:03.953Z,52.42
2022-07-27T08:07:04.190Z,52.52
2022-07-27T08:08:04.425Z,53.12
2022-07-27T08:09:04.672Z,53.85
2022-07-27T08:10:04.914Z,53.14
2022-07-27T08:11:05.169Z,52.75
2022-07-27T08:12:05.424Z,52.75
2022-07-27T08:13:05.663Z,53.07
2022-07-27T08:14:05.934Z,52.97
2022-07-27T08:15:06.184Z,52.97
2022-07-27T08:16:06.479Z,52.77
2022-07-27T08:17:06.736Z,51.76
2022-07-27T08:18:06.978Z,52.37
2022-07-27T08:19:08.782Z,52.39
2022-07-27T08:20:07.555Z,51.49
2022-07-27T08:21:07.784Z,52.89
2022-07-27T08:22:08.030Z,52.59
2022-07-27T08:23:08.262Z,53.50
2022-07-27T08:24:08.511Z,54.60
2022-07-27T08:25:08.744Z,52.80
2022-07-27T08:26:08.994Z,51.87
2022-07-27T08:27:09.243Z,51.87
2022-07-27T08:28:09.491Z,51.37
2022-07-27T08:29:13.795Z,52.17
2022-07-27T08:30:10.032Z,50.36
2022-07-27T08:31:14.667Z,51.37
2022-07-27T08:32:11.704Z,51.04
2022-07-27T08:33:10.996Z,50.96
2022-07-27T08:34:11.245Z,51.17
2022-07-27T08:35:11.479Z,50.76
2022-07-27T08:36:11.707Z,49.66
2022-07-27T08:37:15.343Z,49.08
2022-07-27T08:38:12.289Z,50.89
2022-07-27T08:39:41.274Z,51.99
2022-07-27T08:41:14.080Z,50.99
2022-07-27T08:42:13.382Z,52.62
2022-07-27T08:43:13.632Z,53.12
2022-07-27T08:44:13.970Z,51.42
2022-07-27T08:45:16.179Z,52.22
2022-07-27T08:46:14.667Z,50.43
2022-07-27T08:47:14.803Z,52.14
2022-07-27T08:48:15.056Z,52.74
2022-07-27T08:49:15.679Z,52.74
2022-07-27T08:50:15.573Z,52.77
2022-07-27T08:51:15.846Z,53.07
2022-07-27T08:52:16.124Z,51.99
2022-07-27T08:53:16.468Z,54.10
2022-07-27T08:54:16.619Z,54.10
2022-07-27T08:55:16.866Z,54.40
2022-07-27T08:56:17.117Z,53.57
2022-07-27T08:57:17.366Z,53.27
2022-07-27T08:58:17.619Z,53.07
2022-07-27T08:59:17.879Z,53.75
2022-07-27T09:00:18.227Z,53.45
2022-07-27T09:01:18.415Z,52.94
2022-07-27T09:02:18.739Z,52.84
2022-07-27T09:03:20.957Z,53.25
2022-07-27T09:04:19.259Z,52.72
2022-07-27T09:05:19.510Z,52.92
2022-07-27T09:06:19.750Z,51.51
2022-07-27T09:07:20.000Z,51.89
2022-07-27T09:08:20.253Z,50.79
2022-07-27T09:09:20.535Z,51.29
2022-07-27T09:10:20.783Z,50.76
2022-07-27T09:11:21.061Z,49.05
2022-07-27T09:12:21.354Z,49.84
2022-07-27T09:13:21.593Z,49.13
2022-07-27T09:14:21.864Z,49.54
2022-07-27T09:15:22.154Z,48.33
2022-07-27T09:16:22.504Z,48.93
2022-07-27T09:18:24.129Z,48.46
2022-07-27T09:19:23.434Z,49.36
2022-07-27T09:20:23.704Z,48.48
2022-07-27T09:21:23.960Z,50.59
2022-07-27T09:22:24.196Z,49.48
2022-07-27T09:23:24.445Z,50.79
2022-07-27T09:24:45.484Z,50.59
2022-07-27T09:25:52.111Z,50.09
2022-07-27T09:26:34.541Z,51.49
2022-07-27T09:27:26.429Z,51.37
2022-07-27T09:28:25.739Z,50.26
2022-07-27T09:29:25.990Z,50.86
2022-07-27T09:30:26.240Z,50.36
2022-07-27T09:31:26.517Z,50.76
2022-07-27T09:32:26.771Z,50.06
2022-07-27T09:33:27.042Z,50.16
2022-07-27T09:34:27.368Z,50.26
2022-07-27T09:35:27.614Z,50.16
2022-07-27T09:36:27.856Z,49.66
2022-07-27T09:37:28.095Z,50.26
2022-07-27T09:38:28.350Z,49.76
2022-07-27T09:39:28.617Z,50.16
2022-07-27T09:40:28.866Z,49.16
2022-07-27T09:41:29.129Z,50.26
2022-07-27T09:43:05.905Z,50.56
2022-07-27T09:44:32.527Z,49.76
2022-07-27T09:45:32.458Z,50.06
2022-07-27T09:46:30.440Z,49.36
2022-07-27T09:47:30.607Z,50.66
2022-07-27T09:48:30.859Z,50.86
2022-07-27T09:49:31.097Z,50.26
2022-07-27T09:50:35.582Z,50.26
2022-07-27T09:52:33.019Z,50.84
2022-07-27T09:53:42.774Z,50.63
2022-07-27T09:54:33.728Z,50.44
2022-07-27T09:55:32.962Z,49.74
2022-07-27T09:56:33.216Z,48.81
2022-07-27T09:57:33.489Z,48.83
2022-07-27T09:58:33.814Z,49.93
2022-07-27T09:59:34.106Z,49.84
2022-07-27T10:00:34.362Z,50.04
2022-07-27T10:01:34.660Z,49.13
2022-07-27T10:02:34.935Z,49.63
2022-07-27T10:03:35.183Z,49.63
2022-07-27T10:04:35.503Z,50.04
2022-07-27T10:05:35.768Z,50.04
2022-07-27T10:07:00.505Z,50.84
2022-07-27T10:07:37.358Z,50.13
2022-07-27T10:08:36.658Z,50.04
2022-07-27T10:09:36.918Z,50.46
2022-07-27T10:10:37.185Z,50.56
2022-07-27T10:11:37.428Z,50.96
2022-07-27T10:12:37.701Z,50.68
2022-07-27T10:13:43.833Z,51.49
2022-07-27T10:14:39.301Z,51.59
2022-07-27T10:15:38.645Z,50.59
2022-07-27T10:16:38.880Z,51.09
2022-07-27T10:17:39.114Z,51.49
2022-07-27T10:18:39.363Z,51.29
2022-07-27T10:19:39.608Z,52.09
2022-07-27T10:20:39.882Z,50.68
2022-07-27T10:21:40.104Z,51.87
2022-07-27T10:22:40.346Z,51.76
2022-07-27T10:23:40.584Z,50.76
2022-07-27T10:24:40.870Z,51.37
2022-07-27T10:25:41.107Z,51.67
2022-07-27T10:26:41.348Z,52.17
2022-07-27T10:27:41.595Z,51.26
2022-07-27T10:28:41.857Z,50.06
2022-07-27T10:29:42.109Z,50.46
2022-07-27T10:30:42.396Z,51.06
2022-07-27T10:31:42.712Z,50.46
2022-07-27T10:32:42.992Z,51.06
2022-07-27T10:33:43.241Z,51.37
2022-07-27T10:34:43.527Z,51.37
2022-07-27T10:35:43.761Z,51.79
2022-07-27T10:36:44.012Z,51.59
2022-07-27T10:37:44.243Z,51.19
2022-07-27T10:38:44.483Z,51.56
2022-07-27T10:39:44.735Z,50.86
2022-07-27T10:40:44.985Z,51.46
2022-07-27T10:41:45.234Z,50.66
2022-07-27T10:42:49.018Z,51.26
2022-07-27T10:43:46.818Z,51.76
2022-07-27T10:44:46.144Z,51.44
2022-07-27T10:46:00.950Z,50.63
2022-07-27T10:46:47.776Z,51.74
2022-07-27T10:47:46.948Z,51.74
2022-07-27T10:48:49.054Z,51.21
2022-07-27T10:49:47.479Z,51.21
2022-07-27T10:50:47.733Z,50.92
2022-07-27T10:51:47.980Z,50.92
2022-07-27T10:52:48.223Z,50.42
2022-07-27T10:54:11.528Z,50.19
2022-07-27T10:54:56.755Z,50.69
2022-07-27T10:55:50.062Z,50.69
2022-07-27T10:56:49.353Z,50.19
2022-07-27T10:57:49.609Z,50.79
2022-07-27T10:58:49.845Z,50.29
2022-07-27T11:00:54.981Z,49.99
2022-07-27T11:01:50.734Z,50.29
2022-07-27T11:02:51.026Z,50.71
2022-07-27T11:03:51.337Z,49.29
2022-07-27T11:04:51.586Z,49.41
2022-07-27T11:06:00.329Z,50.01
2022-07-27T11:08:34.733Z,50.71
2022-07-27T11:09:27.357Z,50.71
2022-07-27T11:10:09.181Z,50.71
2022-07-27T11:10:55.068Z,50.49
2022-07-27T11:11:53.378Z,50.49
2022-07-27T11:12:53.619Z,50.59
2022-07-27T11:13:53.872Z,50.49
2022-07-27T11:14:54.123Z,50.46
2022-07-27T11:15:59.890Z,50.76
2022-07-27T11:16:58.993Z,50.07
2022-07-27T11:18:02.073Z,49.26
2022-07-27T11:18:56.273Z,49.76
2022-07-27T11:19:55.491Z,49.57
2022-07-27T11:20:55.735Z,50.46
2022-07-27T11:21:57.890Z,50.46
2022-07-27T11:23:48.849Z,50.26
2022-07-27T11:23:57.572Z,49.46
2022-07-27T11:24:56.999Z,49.26
2022-07-27T11:25:57.106Z,49.87
2022-07-27T11:26:57.348Z,49.87
2022-07-27T11:27:57.599Z,50.07
2022-07-27T11:28:57.857Z,49.87
2022-07-27T11:29:58.129Z,50.37
2022-07-27T11:30:58.465Z,49.07
2022-07-27T11:31:58.981Z,48.46
2022-07-27T11:32:58.997Z,49.66
2022-07-27T11:33:59.240Z,49.76
2022-07-27T11:34:59.489Z,50.37
2022-07-27T11:35:59.731Z,50.07
2022-07-27T11:36:59.981Z,50.37
2022-07-27T11:38:00.244Z,49.96
2022-07-27T11:39:00.492Z,49.66
2022-07-27T11:40:03.203Z,49.57
2022-07-27T11:41:15.332Z,49.87
2022-07-27T11:42:08.390Z,50.16
2022-07-27T11:43:02.645Z,49.96
2022-07-27T11:44:01.966Z,48.16
2022-07-27T11:45:02.288Z,48.86
2022-07-27T11:46:02.552Z,49.37
2022-07-27T11:47:02.811Z,49.79
2022-07-27T11:48:03.057Z,49.49
2022-07-27T11:49:07.077Z,48.38
2022-07-27T11:50:03.689Z,48.69
2022-07-27T11:51:03.830Z,48.89
2022-07-27T11:52:04.077Z,49.19
2022-07-27T11:53:04.321Z,49.99
2022-07-27T11:54:04.569Z,48.28
2022-07-27T11:55:04.822Z,48.49
2022-07-27T11:56:05.061Z,48.69
2022-07-27T11:57:05.328Z,48.79
2022-07-27T11:58:05.593Z,48.69
2022-07-27T11:59:05.843Z,47.88
2022-07-27T12:00:06.169Z,49.49
2022-07-27T12:01:06.413Z,49.69
2022-07-27T12:02:06.733Z,49.08
2022-07-27T12:03:06.981Z,49.49
2022-07-27T12:04:07.224Z,49.99
2022-07-27T12:05:07.505Z,49.69
2022-07-27T12:06:07.764Z,49.49
2022-07-27T12:07:08.016Z,49.08
2022-07-27T12:08:08.265Z,48.99
2022-07-27T12:09:08.497Z,49.19
2022-07-27T12:10:08.757Z,49.99
2022-07-27T12:11:09.008Z,50.49
2022-07-27T12:12:09.262Z,50.79
2022-07-27T12:13:09.520Z,49.96
2022-07-27T12:14:09.790Z,49.66
2022-07-27T12:15:43.161Z,47.76
2022-07-27T12:16:15.672Z,48.86
2022-07-27T12:17:11.667Z,48.26
2022-07-27T12:18:10.854Z,48.46
2022-07-27T12:19:11.423Z,48.36
2022-07-27T12:20:11.409Z,47.76
2022-07-27T12:21:11.658Z,47.86
2022-07-27T12:22:11.893Z,49.26
2022-07-27T12:23:12.134Z,48.86
2022-07-27T12:24:12.382Z,47.74
2022-07-27T12:25:16.637Z,47.54
2022-07-27T12:26:12.856Z,47.94
2022-07-27T12:27:13.104Z,49.04
2022-07-27T12:28:13.361Z,49.54
2022-07-27T12:29:13.971Z,48.74
2022-07-27T12:30:13.864Z,48.84
2022-07-27T12:31:14.132Z,48.64
2022-07-27T12:32:14.387Z,48.34
2022-07-27T12:33:14.636Z,48.32
2022-07-27T12:34:14.878Z,48.02
2022-07-27T12:35:15.139Z,48.42
2022-07-27T12:36:15.398Z,48.52
2022-07-27T12:37:15.642Z,48.61
2022-07-27T12:38:15.890Z,47.72
2022-07-27T12:39:16.318Z,48.52
2022-07-27T12:40:16.428Z,47.92
2022-07-27T12:41:16.671Z,47.72
2022-07-27T12:42:16.911Z,48.02
2022-07-27T12:43:17.161Z,47.74
2022-07-27T12:44:17.421Z,47.81
2022-07-27T12:45:17.671Z,47.42
2022-07-27T12:46:17.944Z,47.44
2022-07-27T12:47:18.203Z,48.64
2022-07-27T12:48:18.465Z,47.84
2022-07-27T12:49:18.787Z,49.11
2022-07-27T12:50:18.974Z,48.72
2022-07-27T12:51:19.210Z,48.32
2022-07-27T12:52:19.456Z,47.81
2022-07-27T12:53:19.707Z,47.92
2022-07-27T12:54:19.979Z,47.31
2022-07-27T12:55:20.253Z,47.72
2022-07-27T12:56:27.586Z,47.72
2022-07-27T12:57:46.325Z,47.31
2022-07-27T12:58:22.072Z,47.22
2022-07-27T12:59:21.370Z,48.11
2022-07-27T13:00:21.631Z,46.64
2022-07-27T13:01:21.908Z,46.94
2022-07-27T13:02:22.215Z,47.34